ソルト・レーク・シティ国際空港の過去48時間の天気

ソルト・レーク・シティ国際空港 (Salt Lake City, Salt Lake City International Airport)

現在時刻: 9/15 21:07 MDT (9/16 03:07 UTC) 以下の時間は現地時間です。

過去48時間のMETAR気象情報
時間 風向 風速(m/s) 視程 気温(℃) 湿度(%) 気圧(hPa) 天気現象
15 20:54 東南東 4 10km以上 25 23 1005.9
15 19:54 南南東 3 10km以上 27.8 14 1005.3
15 18:54 5 10km以上 31.1 11 1005.2
15 17:54 7 10km以上 32.2 10 1005.5
15 16:54 7 10km以上 32.8 10 1005.9
15 15:54 南南東 9 10km以上 32.8 10 1006.6
15 14:54 南東 7 10km以上 32.2 10 1007.8
15 13:54 南南東 8 10km以上 31.7 11 1008.9
15 12:54 南南東 8 10km以上 31.1 12 1009.6
15 11:54 7 10km以上 30 13 1010.6
15 10:54 南南東 8 10km以上 27.8 16 1011.1
15 09:54 東南東 6 10km以上 23.9 28 1011.7
15 08:54 南東 6 10km以上 21.1 31 1011.7
15 07:54 南東 7 10km以上 21.7 25 1011.2
15 06:54 南南東 6 10km以上 20 30 1010.8
15 05:54 南南東 6 10km以上 19.4 33 1010.5
15 04:54 南南東 5 10km以上 18.9 38 1010.7
15 03:54 南南東 7 10km以上 20 33 1010.9
15 02:54 南東 5 10km以上 18.9 34 1011.7
15 01:54 南東 4 10km以上 20 30 1011.9
15 00:54 南南東 6 10km以上 22.8 24 1011.7
14 23:54 南東 4 10km以上 21.1 30 1012.3
14 22:54 南南東 4 10km以上 22.2 29 1012.5
14 21:54 南南東 4 10km以上 22.2 31 1012.8
14 20:54 南南東 5 10km以上 23.9 29 1012.8
14 19:54 4 10km以上 24.4 36 1013.1
14 18:54 3 10km以上 28.9 20 1012.9
14 17:54 4 10km以上 31.1 15 1013
14 16:54 5 10km以上 31.7 15 1013.1
14 15:54 北西 4 10km以上 31.1 12 1013.8
14 14:54 4 10km以上 30.6 14 1014.8
14 13:54 3 10km以上 28.9 17 1016
14 12:54 3 10km以上 27.2 21 1016.9
14 11:54 南南東 3 10km以上 25 24 1017.5
14 10:54 南東 2 10km以上 22.8 30 1018.5
14 09:54 南東 3 10km以上 20.6 38 1018.8
14 08:54 南南東 4 10km以上 18.3 43 1018.6
14 07:54 南東 4 10km以上 15 58 1019
14 06:54 東南東 4 10km以上 13.9 57 1018.1
14 05:54 東南東 4 10km以上 14.4 55 1017.7
14 04:54 3 10km以上 15.6 51 1017.3
14 03:54 東南東 4 10km以上 15 55 1017.2
14 02:54 南東 4 10km以上 15.6 53 1017.7
14 01:54 南東 2 10km以上 16.1 52 1017.9
14 00:54 南南東 4 10km以上 17.2 46 1017.4
13 23:54 南南東 4 10km以上 18.9 40 1017.4
13 22:54 南東 4 10km以上 18.9 42 1017.8
13 21:54 南南東 4 10km以上 20 37 1017.9
KSLC 160254Z 12008KT 10SM FEW120 FEW200 25/02 A2986 RMK AO2 SLP059 T02500022 55002 $
KSLC 160154Z 16005KT 10SM FEW120 SCT200 28/M02 A2986 RMK AO2 SLP053 T02781017 $
KSLC 160054Z 18010G18KT 10SM FEW100 FEW130 BKN230 31/M03 A2986 RMK AO2 SLP052 T03111033 $
KSLC 152354Z 17014KT 10SM FEW100 SCT140 BKN230 32/M03 A2987 RMK AO2 SLP055 T03221028 10333 20300 56019 $
KSLC 152254Z 18014G21KT 10SM FEW100 SCT250 33/M03 A2988 RMK AO2 SLP059 T03281033 $
KSLC 152154Z 15018G24KT 10SM FEW100 SCT250 33/M03 A2991 RMK AO2 SLP066 T03281033 $
KSLC 152054Z COR 14014KT 10SM FEW100 SCT250 32/M03 A2993 RMK AO2 SLP078 T03221028 58024 $
KSLC 151954Z 15015KT 10SM FEW100 FEW250 32/M02 A2997 RMK AO2 SLP089 T03171022 $
KSLC 151854Z 16015G24KT 10SM FEW090 FEW250 31/M02 A2999 RMK AO2 SLP096 T03111022 $
KSLC 151754Z 17013G22KT 10SM FEW250 30/M02 A3001 RMK AO2 SLP106 T03001017 10300 20189 58003 $
KSLC 151654Z 16015KT 10SM FEW250 28/00 A3002 RMK AO2 SLP111 T02780000 $
KSLC 151554Z 12012KT 10SM FEW250 24/04 A3003 RMK AO2 SLP117 T02390044 $
KSLC 151454Z 14011KT 10SM FEW250 21/03 A3003 RMK AO2 SLP117 T02110033 53004 $
KSLC 151354Z 13013G21KT 10SM FEW220 22/01 A3002 RMK AO2 SLP112 T02170006 $
KSLC 151254Z 15011KT 10SM FEW220 20/02 A3001 RMK AO2 SLP108 T02000017 $
KSLC 151154Z 15011KT 10SM CLR 19/03 A3001 RMK AO2 SLP105 T01940028 10228 20183 56009 $
KSLC 151054Z 16009KT 10SM CLR 19/04 A3002 RMK AO2 SLP107 T01890044 $
KSLC 150954Z COR 15013KT 10SM CLR 20/03 A3002 RMK AO2 SLP109 T02000033 $
KSLC 150854Z 13009KT 10SM CLR 19/03 A3004 RMK AO2 SLP117 T01890028 56002 $
KSLC 150754Z 13007KT 10SM CLR 20/02 A3004 RMK AO2 SLP119 T02000017 $
KSLC 150654Z 15011KT 10SM CLR 23/01 A3004 RMK AO2 SLP117 T02280011 403220133 $
KSLC 150554Z 14008KT 10SM CLR 21/03 A3005 RMK AO2 SLP123 T02110028 10311 20206 50000 $
KSLC 150454Z 16008KT 10SM CLR 22/03 A3005 RMK AO2 SLP125 T02220033 $
KSLC 150354Z 16007KT 10SM CLR 22/04 A3005 RMK AO2 SLP128 T02220044 $
KSLC 150254Z 15009KT 10SM FEW230 24/05 A3005 RMK AO2 SLP128 T02390050 56005 $
KSLC 150154Z 01008KT 10SM FEW230 24/08 A3005 RMK AO2 SLP131 T02440083 $
KSLC 150054Z 35006KT 10SM FEW230 29/04 A3005 RMK AO2 SLP129 T02890039 $
KSLC 142354Z 35008KT 10SM FEW220 31/02 A3006 RMK AO2 SLP130 T03110017 10322 20250 56017 $
KSLC 142254Z 35009KT 10SM FEW220 32/02 A3007 RMK AO2 SLP131 T03170017 $
KSLC 142154Z 32007KT 10SM FEW220 31/M01 A3009 RMK AO2 SLP138 T03111011 $
KSLC 142054Z 18008KT 150V250 10SM FEW220 31/00 A3012 RMK AO2 SLP148 T03060000 58021 $
KSLC 141954Z VRB05KT 10SM FEW002 FEW220 29/01 A3015 RMK AO2 SLP160 FU FEW002 FU VC NW T02890011 $
KSLC 141854Z VRB05KT 10SM FEW220 27/03 A3017 RMK AO2 SLP169 T02720033 $
KSLC 141754Z 15005KT 10SM FEW220 25/03 A3019 RMK AO2 SLP175 T02500033 10250 20133 58004 $
KSLC 141654Z 14004KT 10SM FEW220 23/04 A3021 RMK AO2 SLP185 T02280044 $
KSLC 141554Z 13005KT 10SM FEW220 21/06 A3021 RMK AO2 SLP188 T02060056 $
KSLC 141454Z 15008KT 10SM FEW220 18/06 A3021 RMK AO2 SLP186 T01830056 50007 $
KSLC 141354Z 13007KT 10SM FEW220 15/07 A3021 RMK AO2 SLP190 T01500067 $
KSLC 141254Z 12007KT 10SM FEW220 14/06 A3019 RMK AO2 SLP181 T01390056
KSLC 141154Z 12007KT 10SM CLR 14/06 A3018 RMK AO2 SLP177 T01440056 10189 20144 55001
KSLC 141054Z 17006KT 10SM CLR 16/06 A3018 RMK AO2 SLP173 T01560056
KSLC 140954Z 12008KT 10SM CLR 15/06 A3018 RMK AO2 SLP172 T01500061
KSLC 140854Z 13007KT 10SM CLR 16/06 A3019 RMK AO2 SLP177 T01560061 50003
KSLC 140754Z 13004KT 10SM CLR 16/06 A3019 RMK AO2 SLP179 T01610061
KSLC 140654Z 15008KT 10SM CLR 17/06 A3018 RMK AO2 SLP174 T01720056 402720117
KSLC 140554Z 15007KT 10SM CLR 19/05 A3018 RMK AO2 SLP174 T01890050 10267 20183 50002
KSLC 140454Z 14007KT 10SM CLR 19/06 A3018 RMK AO2 SLP178 T01890056
KSLC 140354Z 16008KT 10SM FEW240 20/05 A3018 RMK AO2 SLP179 T02000050